createdAt,value
2023-11-25T00:01:41.229Z,0.94
2023-11-25T00:06:45.911Z,0.98
2023-11-25T00:11:49.301Z,1.00
2023-11-25T00:16:52.470Z,1.03
2023-11-25T00:21:54.852Z,1.09
2023-11-25T00:26:57.480Z,1.15
2023-11-25T00:32:02.279Z,1.19
2023-11-25T00:37:09.591Z,1.22
2023-11-25T00:42:12.569Z,1.22
2023-11-25T00:47:15.123Z,1.23
2023-11-25T00:52:20.246Z,1.25
2023-11-25T00:57:23.003Z,1.27
2023-11-25T01:02:37.372Z,1.26
2023-11-25T01:07:42.576Z,1.29
2023-11-25T01:12:44.902Z,1.32
2023-11-25T01:17:47.357Z,1.36
2023-11-25T01:22:52.343Z,1.40
2023-11-25T01:27:59.712Z,1.39
2023-11-25T01:33:04.115Z,1.31
2023-11-25T01:38:07.250Z,1.21
2023-11-25T01:43:12.513Z,1.09
2023-11-25T01:48:16.029Z,1.00
2023-11-25T01:53:22.302Z,0.92
2023-11-25T01:58:33.779Z,0.82
2023-11-25T02:03:37.494Z,0.76
2023-11-25T02:08:40.390Z,0.75
2023-11-25T02:13:42.684Z,0.75
2023-11-25T02:18:45.688Z,0.74
2023-11-25T02:24:49.241Z,0.75
2023-11-25T02:31:11.436Z,0.79
2023-11-25T02:37:33.440Z,0.80
2023-11-25T02:42:57.292Z,0.79
2023-11-25T02:48:02.199Z,0.77
2023-11-25T02:53:06.047Z,0.74
2023-11-25T02:58:09.418Z,0.71
2023-11-25T03:04:11.586Z,0.63
2023-11-25T03:09:35.002Z,0.57
2023-11-25T03:14:37.180Z,0.54
2023-11-25T03:19:40.236Z,0.54
2023-11-25T03:24:42.839Z,0.54
2023-11-25T03:29:45.073Z,0.54
2023-11-25T03:35:47.198Z,0.60
2023-11-25T03:42:09.068Z,0.59
2023-11-25T03:48:30.992Z,0.65
2023-11-25T03:54:52.954Z,0.71
2023-11-25T04:00:16.491Z,0.70
2023-11-25T04:05:19.247Z,0.66
2023-11-25T04:10:21.665Z,0.68
2023-11-25T04:15:23.937Z,0.68
2023-11-25T04:20:30.274Z,0.65
2023-11-25T04:26:13.606Z,0.60
2023-11-25T04:32:39.470Z,0.57
2023-11-25T04:39:05.872Z,0.57
2023-11-25T04:44:29.227Z,0.57
2023-11-25T04:50:46.256Z,0.54
2023-11-25T04:57:08.357Z,0.52
2023-11-25T05:03:30.301Z,0.47
2023-11-25T05:09:52.550Z,0.41
2023-11-25T05:16:14.790Z,0.34
2023-11-25T05:22:12.754Z,0.31
2023-11-25T05:27:15.021Z,0.29
2023-11-25T05:32:17.729Z,0.25
2023-11-25T05:37:42.263Z,0.23
2023-11-25T05:42:50.128Z,0.18
2023-11-25T05:47:52.897Z,0.16
2023-11-25T05:52:57.977Z,0.15
2023-11-25T05:58:01.114Z,0.16
2023-11-25T06:03:05.716Z,0.09
2023-11-25T06:08:10.627Z,-0.01
2023-11-25T06:13:18.325Z,-0.02
2023-11-25T06:18:23.680Z,-0.00
2023-11-25T06:23:26.545Z,0.00
2023-11-25T06:28:49.233Z,-0.03
2023-11-25T06:33:59.910Z,-0.08
2023-11-25T06:40:02.162Z,-0.09
2023-11-25T06:46:24.316Z,-0.03
2023-11-25T06:52:47.726Z,-0.02
2023-11-25T06:59:09.681Z,-0.03
2023-11-25T07:05:31.589Z,0.02
2023-11-25T07:11:53.520Z,0.05
2023-11-25T07:18:15.493Z,0.09
2023-11-25T07:24:37.381Z,0.12
2023-11-25T07:30:04.390Z,0.14
2023-11-25T07:35:09.195Z,0.16
2023-11-25T07:40:17.104Z,0.07
2023-11-25T07:45:20.003Z,0.07
2023-11-25T07:50:23.430Z,0.08
2023-11-25T07:55:26.370Z,0.17
2023-11-25T08:00:29.465Z,0.29
2023-11-25T08:05:31.960Z,0.33
2023-11-25T08:10:36.799Z,0.46
2023-11-25T08:16:42.203Z,1.03
2023-11-25T08:22:04.998Z,1.93
2023-11-25T08:27:08.336Z,2.09
2023-11-25T08:33:10.638Z,2.09
2023-11-25T08:39:32.568Z,2.08
2023-11-25T08:46:04.784Z,2.03
2023-11-25T08:52:26.844Z,1.84
2023-11-25T08:59:08.855Z,1.65
2023-11-25T09:05:30.922Z,1.60
2023-11-25T09:11:52.910Z,2.39
2023-11-25T09:17:16.934Z,2.76
2023-11-25T09:22:22.081Z,2.60
2023-11-25T09:27:25.169Z,2.25
2023-11-25T09:32:47.730Z,1.76
2023-11-25T09:37:51.999Z,1.54
2023-11-25T09:42:56.294Z,1.72
2023-11-25T09:47:59.364Z,2.40
2023-11-25T09:53:31.421Z,3.16
2023-11-25T09:58:36.237Z,3.36
2023-11-25T10:04:38.697Z,3.28
2023-11-25T10:10:25.596Z,3.04
2023-11-25T10:16:30.899Z,2.96
2023-11-25T10:21:59.621Z,2.82
2023-11-25T10:28:09.231Z,2.76
2023-11-25T10:35:13.190Z,2.66
2023-11-25T10:42:17.114Z,2.55
2023-11-25T10:49:21.089Z,2.20
2023-11-25T10:56:25.961Z,1.72
2023-11-25T11:03:32.680Z,1.66
2023-11-25T11:10:40.014Z,1.88
2023-11-25T11:17:50.099Z,2.12
2023-11-25T11:24:53.912Z,2.33
2023-11-25T11:32:04.497Z,2.19
2023-11-25T11:39:05.111Z,2.63
2023-11-25T11:46:14.816Z,4.17
2023-11-25T11:53:18.588Z,4.10
2023-11-25T12:00:40.695Z,3.58
2023-11-25T12:07:44.533Z,3.23
2023-11-25T12:14:33.646Z,2.96
2023-11-25T12:21:37.261Z,3.25
2023-11-25T12:28:54.282Z,3.18
2023-11-25T12:35:58.246Z,3.51
2023-11-25T12:42:52.034Z,4.23
2023-11-25T12:50:01.242Z,4.19
2023-11-25T12:57:05.091Z,3.74
2023-11-25T13:04:09.942Z,3.16
2023-11-25T13:11:13.784Z,2.71
2023-11-25T13:18:18.505Z,2.44
2023-11-25T13:25:22.550Z,2.08
2023-11-25T13:32:17.410Z,1.84
2023-11-25T13:39:21.413Z,1.64
2023-11-25T13:46:18.367Z,1.42
2023-11-25T13:53:28.261Z,1.26
2023-11-25T14:00:32.210Z,1.12
2023-11-25T14:07:36.022Z,0.87
2023-11-25T14:14:30.385Z,0.67
2023-11-25T14:21:28.669Z,0.50
2023-11-25T14:28:24.822Z,0.40
2023-11-25T14:35:28.567Z,0.27
2023-11-25T14:42:12.674Z,0.30
2023-11-25T14:49:16.594Z,0.26
2023-11-25T14:56:10.189Z,0.22
2023-11-25T15:03:14.231Z,0.21
2023-11-25T15:10:18.155Z,0.21
2023-11-25T15:17:21.911Z,0.11
2023-11-25T15:24:26.298Z,0.00
2023-11-25T15:31:34.292Z,0.04
2023-11-25T15:38:37.983Z,0.03
2023-11-25T15:45:31.405Z,-0.05
2023-11-25T15:52:38.431Z,-0.08
2023-11-25T15:59:42.860Z,-0.09
2023-11-25T16:06:37.330Z,-0.14
2023-11-25T16:13:41.226Z,-0.24
2023-11-25T16:20:45.263Z,-0.32
2023-11-25T16:27:49.038Z,-0.35
2023-11-25T16:34:42.524Z,-0.38
2023-11-25T16:41:46.494Z,-0.36
2023-11-25T16:48:53.870Z,-0.32
2023-11-25T16:56:03.153Z,-0.26
2023-11-25T17:03:06.083Z,-0.17
2023-11-25T17:10:10.280Z,-0.08
2023-11-25T17:17:07.117Z,-0.08
2023-11-25T17:24:10.921Z,-0.22
2023-11-25T17:31:15.041Z,-0.34
2023-11-25T17:38:18.668Z,-0.36
2023-11-25T17:45:22.486Z,-0.41
2023-11-25T17:52:26.451Z,-0.46
2023-11-25T17:59:30.395Z,-0.39
2023-11-25T18:06:34.322Z,-0.33
2023-11-25T18:13:28.017Z,-0.25
2023-11-25T18:20:32.175Z,-0.26
2023-11-25T18:27:23.166Z,-0.26
2023-11-25T18:34:27.255Z,-0.24
2023-11-25T18:41:21.632Z,-0.20
2023-11-25T18:48:21.977Z,-0.18
2023-11-25T18:55:25.713Z,-0.18
2023-11-25T19:02:45.636Z,-0.14
2023-11-25T19:10:02.720Z,-0.17
2023-11-25T19:17:07.230Z,-0.12
2023-11-25T19:24:11.326Z,-0.11
2023-11-25T19:31:15.970Z,-0.15
2023-11-25T19:38:12.880Z,-0.19
2023-11-25T19:45:09.668Z,-0.20
2023-11-25T19:52:13.695Z,-0.15
2023-11-25T19:59:17.585Z,-0.06
2023-11-25T20:06:21.971Z,0.03
2023-11-25T20:13:27.533Z,-0.09
2023-11-25T20:20:23.900Z,-0.17
2023-11-25T20:27:33.163Z,-0.17
2023-11-25T20:34:33.720Z,-0.10
2023-11-25T20:41:27.393Z,-0.09
2023-11-25T20:48:21.435Z,-0.05
2023-11-25T20:55:18.317Z,-0.07
2023-11-25T21:02:22.898Z,-0.16
2023-11-25T21:09:27.198Z,-0.16
2023-11-25T21:16:30.980Z,-0.08
2023-11-25T21:23:35.304Z,-0.02
2023-11-25T21:30:39.730Z,0.02
2023-11-25T21:37:46.115Z,0.05
2023-11-25T21:44:43.683Z,0.00
2023-11-25T21:51:48.086Z,-0.07
2023-11-25T21:58:24.497Z,-0.09
2023-11-25T22:05:31.391Z,-0.08
2023-11-25T22:12:35.433Z,-0.06
2023-11-25T22:19:39.289Z,-0.03
2023-11-25T22:26:56.867Z,-0.07
2023-11-25T22:34:00.713Z,-0.07
2023-11-25T22:41:04.526Z,-0.07
2023-11-25T22:48:02.020Z,-0.04
2023-11-25T22:55:05.926Z,-0.09
2023-11-25T23:02:10.290Z,-0.08
2023-11-25T23:09:04.900Z,-0.09
2023-11-25T23:16:10.880Z,-0.10
2023-11-25T23:23:07.332Z,-0.10
2023-11-25T23:30:11.251Z,-0.06
2023-11-25T23:37:05.242Z,0.02
2023-11-25T23:44:06.684Z,0.04
2023-11-25T23:51:10.524Z,0.01
2023-11-25T23:58:14.257Z,0.06
